ADDS METAR Data INFO
IDs: Format: Raw Decoded Include TAF

Data at: 0753 UTC 23 Apr 2018

K11R 230735Z AUTO 00000KT 10SM CLR 12/10 A3005 RMK AO2 T01210101
K11R 230715Z AUTO 00000KT 10SM CLR 12/10 A3005 RMK AO2 T01180100
K11R 230655Z AUTO 00000KT 10SM CLR 13/10 A3006 RMK AO2 T01250100
K11R 230635Z AUTO 00000KT 10SM CLR 13/10 A3005 RMK AO2 T01300097
K11R 230615Z AUTO 00000KT 10SM CLR 13/10 A3006 RMK AO2 T01320102
K11R 230555Z AUTO 00000KT 10SM CLR 14/10 A3005 RMK AO2 T01370101 10215 20131 402270127
K11R 230535Z AUTO 00000KT 10SM CLR 14/10 A3005 RMK AO2 T01360103
K11R 230515Z AUTO 00000KT 10SM CLR 15/10 A3005 RMK AO2 T01450100
K11R 230455Z AUTO 00000KT 10SM CLR 14/11 A3005 RMK AO2 T01440107
K11R 230435Z AUTO 00000KT 10SM CLR 15/11 A3005 RMK AO2 T01450106
K11R 230415Z AUTO 00000KT 10SM CLR 15/10 A3006 RMK AO2 T01500101
K11R 230355Z AUTO 00000KT 10SM CLR 15/10 A3006 RMK AO2 T01510102
K11R 230335Z AUTO 36003KT 10SM CLR 16/10 A3006 RMK AO2 T01590102
K11R 230315Z AUTO 01005KT 10SM CLR 16/10 A3005 RMK AO2 T01620104
K11R 230255Z AUTO 01006KT 10SM CLR 16/11 A3005 RMK AO2 T01610108
K11R 230235Z AUTO 01005KT 10SM CLR 16/11 A3004 RMK AO2 T01640109
K11R 230215Z AUTO 36004KT 10SM CLR 17/11 A3004 RMK AO2 T01650109
K11R 230155Z AUTO 36006KT 10SM CLR 17/11 A3003 RMK AO2 T01680110
K11R 230135Z AUTO 35006KT 10SM CLR 16/11 A3003 RMK AO2 T01630110
K11R 230115Z AUTO 35006KT 10SM CLR 17/11 A3002 RMK AO2 T01730111
K11R 230055Z AUTO 35006KT 10SM CLR 18/11 A3002 RMK AO2 T01810110
K11R 230035Z AUTO 35006KT 10SM CLR 20/10 A3002 RMK AO2 T01980104
K11R 230015Z AUTO 35009KT 10SM CLR 21/10 A3001 RMK AO2 T02080104
K11R 222355Z AUTO 34011G14KT 10SM CLR 22/10 A3001 RMK AO2 T02170098 10227 20177
K11R 222335Z AUTO 34009KT 10SM CLR 22/10 A3001 RMK AO2 T02170096
K11R 222315Z AUTO 35010G16KT 10SM CLR 22/10 A3001 RMK AO2 T02220100
K11R 222255Z AUTO 34007KT 10SM CLR 23/10 A3001 RMK AO2 T02250102
K11R 222235Z AUTO 33012G16KT 10SM CLR 23/11 A3001 RMK AO2 T02250105
K11R 222215Z AUTO 34010G15KT 10SM CLR 23/11 A3001 RMK AO2 T02250108
K11R 222155Z AUTO 33010G18KT 10SM CLR 22/11 A3002 RMK AO2 T02240106
K11R 222135Z AUTO 35010G14KT 10SM CLR 22/11 A3002 RMK AO2 T02230110
K11R 222115Z AUTO 32014KT 10SM CLR 22/11 A3003 RMK AO2 T02210112
K11R 222055Z AUTO 34012G19KT 10SM CLR 22/11 A3003 RMK AO2 T02170110
K11R 222035Z AUTO 32012KT 10SM SCT041 21/11 A3004 RMK AO2 T02120111
K11R 222015Z AUTO 32011KT 10SM SCT038 21/11 A3005 RMK AO2 T02100108
K11R 221955Z AUTO 32012G16KT 10SM SCT036 21/11 A3006 RMK AO2 T02060114
K11R 221935Z AUTO 32012G16KT 10SM CLR 21/12 A3007 RMK AO2 T02050117
K11R 221915Z AUTO 33011KT 310V010 10SM CLR 20/12 A3008 RMK AO2 T01970116
K11R 221855Z AUTO 33011KT 10SM SCT030 20/12 A3008 RMK AO2 T01950116
K11R 221835Z AUTO 31009KT 10SM SCT028 19/11 A3009 RMK AO2 T01870113
K11R 221815Z AUTO 33012G15KT 10SM SCT026 18/11 A3010 RMK AO2 T01840109
K11R 221755Z AUTO 32011G14KT 10SM BKN024 18/11 A3011 RMK AO2 T01750111 10175 20127
K11R 221735Z AUTO 33011G18KT 10SM BKN024 18/11 A3012 RMK AO2 T01750110
K11R 221715Z AUTO 32013KT 10SM OVC024 17/11 A3012 RMK AO2 T01690106
K11R 221655Z AUTO 33013KT 10SM OVC022 16/11 A3012 RMK AO2 T01630106
K11R 221635Z AUTO 34012G19KT 10SM OVC022 16/10 A3013 RMK AO2 T01590103
K11R 221615Z AUTO 33012G19KT 10SM OVC020 16/11 A3012 RMK AO2 T01550105
K11R 221555Z AUTO 34016G19KT 10SM BKN020 16/11 A3011 RMK AO2 T01590109
K11R 221535Z AUTO 33016KT 10SM OVC020 15/11 A3010 RMK AO2 T01510105
K11R 221515Z AUTO 34015G20KT 10SM OVC018 15/10 A3010 RMK AO2 T01470103
K11R 221455Z AUTO 34013G21KT 10SM OVC018 15/11 A3009 RMK AO2 T01480109
K11R 221435Z AUTO 35018G22KT 10SM OVC018 14/11 A3009 RMK AO2 T01400105
K11R 221415Z AUTO 35014G22KT 10SM OVC018 14/11 A3009 RMK AO2 T01370105
K11R 221355Z AUTO 34017G23KT 10SM OVC018 13/11 A3008 RMK AO2 T01330105
K11R 221335Z AUTO 34017KT 10SM OVC018 13/10 A3009 RMK AO2 T01300104
K11R 221315Z AUTO 35012KT 10SM OVC016 13/11 A3009 RMK AO2 T01300106
K11R 221255Z AUTO 35015KT 10SM OVC016 13/11 A3008 RMK AO2 T01280105
K11R 221235Z AUTO 35011G15KT 10SM OVC012 13/11 A3007 RMK AO2 T01290110
K11R 221215Z AUTO 34007KT 10SM OVC012 13/12 A3006 RMK AO2 T01300116
K11R 221155Z AUTO 34009G20KT 10SM BKN012 13/12 A3005 RMK AO2 70271 T01310116 10195 20130
K11R 221135Z AUTO 34011G15KT 10SM SCT014 13/12 A3004 RMK AO2 T01300116
K11R 221115Z AUTO 34008KT 10SM CLR 13/12 A3003 RMK AO2 T01320116
K11R 221055Z AUTO 34008KT 10SM CLR 14/12 A3002 RMK AO2 T01360120
K11R 221035Z AUTO 33009KT 10SM SCT024 SCT030 14/13 A3002 RMK AO2 T01410129
K11R 221015Z AUTO 34009KT 10SM BKN022 BKN030 15/13 A3001 RMK AO2 T01480133
K11R 220955Z AUTO 33011KT 10SM OVC022 15/14 A3001 RMK AO2 T01510135
K11R 220935Z AUTO 33010KT 10SM OVC020 15/14 A3002 RMK AO2 T01520138
K11R 220915Z AUTO 33012G16KT 10SM OVC018 16/14 A3001 RMK AO2 T01550142
K11R 220855Z AUTO 33014G22KT 10SM OVC014 16/15 A3001 RMK AO2 T01560145
K11R 220835Z AUTO 33016G23KT 7SM OVC010 16/15 A3000 RMK AO2 T01610154
K11R 220815Z AUTO 34014G21KT 5SM BR OVC008 17/16 A2999 RMK AO2 T01660162
K11R 220755Z AUTO 34017G21KT 4SM BR OVC008 18/17 A2999 RMK AO2 T01750172
K11R 220735Z AUTO 34015KT 5SM BR OVC008 18/18 A2999 RMK AO2 T01780177
K11R 220710Z AUTO 34017G23KT 5SM BR OVC006 18/18 A2998 RMK AO2 T01800180
K11R 220655Z AUTO 33014KT 7SM BKN006 BKN014 OVC021 18/18 A2998 RMK AO2 T01840184
K11R 220635Z AUTO 31006KT 5SM BR BKN021 BKN029 BKN042 19/19 A2997 RMK AO2 T01900190
K11R 220615Z AUTO 33004KT 5SM BR SCT008 BKN021 BKN040 19/19 A2996 RMK AO2 T01880188
K11R 220555Z AUTO 01003KT 10SM BKN006 BKN009 20/20 A2996 RMK AO2 LTG DSNT SE 60269 T01950195 10221 20195 402300120
K11R 220535Z AUTO 33006KT 2 1/2SM BR OVC003 20/20 A2996 RMK AO2 LTG DSNT E T01970197
K11R 220515Z AUTO 00000KT 1/2SM FG OVC003 20/20 A2995 RMK AO2 T01980198
K11R 220455Z AUTO 33005KT 1/4SM FG OVC003 20/20 A2996 RMK AO2 LTG DSNT E T02000199
K11R 220435Z AUTO 00000KT 1/4SM FG OVC003 20/20 A2994 RMK AO2 T01980198
K11R 220415Z AUTO 11005KT 1SM BR OVC003 20/20 A2991 RMK AO2 LTG DSNT E T01970196
K11R 220355Z AUTO 11004KT 4SM BR BKN003 20/20 A2991 RMK AO2 LTG DSNT E P0001 T01970196
K11R 220335Z AUTO 13003KT 7SM VCTS SCT003 SCT055 20/20 A2991 RMK AO2 LTG DSNT SE T01970196
K11R 220315Z AUTO 10003KT 10SM SCT002 SCT055 SCT080 20/20 A2992 RMK AO2 LTG DSNT NE THRU SE T02000200
K11R 220255Z AUTO 10005KT 7SM SCT002 BKN029 BKN080 20/20 A2992 RMK AO2 LTG DSNT NE THRU SE P0005 60268 T02010200
K11R 220235Z AUTO 07004KT 5SM BR SCT004 BKN012 OVC029 20/20 A2991 RMK AO2 P0005 T02030201
K11R 220215Z AUTO 32005KT 3SM -VCTSRA SCT013 BKN020 OVC045 20/20 A2993 RMK AO2 LTG DSNT E AND SE P0005 T02030201
K11R 220155Z AUTO 10003KT 4SM VCTSRA SCT026 BKN036 OVC048 20/20 A2991 RMK AO2 LTG DSNT E AND S P0060 T02030201
K11R 220135Z AUTO 10006KT 2SM +RA SCT018 BKN025 OVC033 20/20 A2990 RMK AO2 VIS 1 1/4V3 LTG DSNT E THRU S P0056 T02020200
K11R 220115Z AUTO 11004KT 2 1/2SM +RA SCT012 BKN024 OVC041 20/20 A2990 RMK AO2 LTG DSNT NE AND E P0031 T02020200
K11R 220055Z AUTO 11004KT 3/4SM +TSRA OVC012 20/20 A2989 RMK AO2 LTG DSNT NW THRU E P0199 T02020197
K11R 220035Z AUTO 10004KT 1 3/4SM +TSRA BKN007 BKN013 OVC022 21/20 A2988 RMK AO2 LTG DSNT ALQS P0140 T02060200
K11R 220015Z AUTO 15011G15KT 1/2SM +TSRA BKN007 OVC014 22/21 A2989 RMK AO2 LTG DSNT ALQS P0056 T02170206
K11R 212355Z AUTO 08004KT 10SM VCTS SCT026 BKN031 OVC043 22/21 A2987 RMK AO2 LTG DSNT ALQS 60002 T02210205 10230 20207
K11R 212335Z AUTO 12007KT 10SM SCT015 SCT020 OVC031 22/21 A2987 RMK AO2 LTG DSNT SW AND W T02230207
K11R 212315Z AUTO 14008KT 10SM TS BKN015 BKN024 OVC031 23/21 A2988 RMK AO2 LTG DSNT NE AND W T02250208
K11R 212255Z AUTO 16008KT 140V200 10SM BKN015 BKN024 OVC031 23/21 A2989 RMK AO2 LTG DSNT W T02260208
K11R 212235Z AUTO 16008KT 10SM VCTS BKN011 OVC022 23/21 A2989 RMK AO2 LTG DSNT N AND W T02260212
K11R 212215Z AUTO 14006KT 7SM BKN009 BKN016 OVC024 23/22 A2990 RMK AO2 LTG DSNT NE T02280219
K11R 212155Z AUTO 14004KT 7SM SCT008 OVC016 22/21 A2991 RMK AO2 T02200214
K11R 212135Z AUTO 15004KT 5SM BR OVC008 21/21 A2992 RMK AO2 T02130208
K11R 212115Z AUTO 14005KT 5SM BR BKN006 BKN013 OVC035 21/21 A2992 RMK AO2 T02110206
K11R 212055Z AUTO 14005KT 4SM -RA SCT004 BKN015 OVC027 21/20 A2993 RMK AO2 P0002 60002 T02080203
K11R 212035Z AUTO 13006KT 2SM -RA SCT006 BKN017 OVC035 21/20 A2993 RMK AO2 P0001 T02100203
K11R 212015Z AUTO 13008KT 5SM -RA SCT008 BKN044 OVC050 21/20 A2994 RMK AO2 T02100203
K11R 211955Z AUTO 13011KT 5SM BR SCT008 BKN055 OVC065 21/20 A2995 RMK AO2 T02080200